AR78 weather

Unity Health Specialty Care Heliport
Searcy, Arkansas, United States

Public forecast

Using degrees Fahrenheit for public forecast. Weather courtesy of forecast.io.

Closest aviation weather report (METAR) to Unity Health Specialty Care Heliport

Closest report is Searcy Municipal Airport, 1.4 nm (2.6 km) SSW. Retrieved 2019/12/13 16:41 UTC (0 seconds ago):

KSRC 131641Z AUTO 00000KT 10SM OVC004 07/07 A2999 RMK AO2

Closest aviation forecast (TAF) to Unity Health Specialty Care Heliport

Closest forecast is Little Rock Air Force Base, 28.1 nm (52.0 km) SW. Retrieved 2019/12/13 15:12 UTC (49 minutes ago):

TAF KLRF 131500Z 1315/1421 VRB06KT 1600 BR FEW010 BKN020 QNH2998INS TEMPO 1315/1316 0600 FG VV002 BECMG 1315/1316 VRB06KT 8000 BR FEW010 BKN020 QNH2976INS TEMPO 1316/1318 3200 BR BKN010 BECMG 1409/1410 VRB06KT 9000 BR SCT020 BKN150 QNH2978INS TX10/1321Z TN00/1413Z